Time;durP1;ratioP1;P1;durP2;ratioP2;P2;SDS_P1;SDS_P2;PMS_P1;PMS_P2;Temp;Humidity;BMP_temperature;BMP_pressure;BME280_temperature;BME280_humidity;BME280_pressure;Samples;Min_cycle;Max_cycle;Signal;HPM_P1;HPM_P2
2023/07/14 00:00:20;;;;;;;;;;;;;;;23.15;62.20;99618.25;4495093;31;32913;-74
2023/07/14 00:02:50;;;;;;;;;;;;;;;23.35;61.57;99619.56;4496986;31;33529;-75
2023/07/14 00:05:28;;;;;;;;;;;;;;;23.26;61.88;99622.81;4499386;31;34300;-76
2023/07/14 00:07:57;;;;;;;;;;;;;;;23.06;62.82;99626.78;4497203;31;33781;-75
2023/07/14 00:10:32;;;;;;;;;;;;;;;23.05;62.74;99631.25;4496587;31;33821;-76
2023/07/14 00:13:07;;;;;;;;;;;;;;;23.12;62.38;99629.91;4495452;31;33908;-76
2023/07/14 00:15:39;;;;;;;;;;;;;;;23.34;61.44;99631.94;4500602;31;33880;-74
2023/07/14 00:18:18;;;;;;;;;;;;;;;23.24;61.99;99630.84;4500252;31;35004;-74
2023/07/14 00:20:47;;;;;;;;;;;;;;;23.28;61.79;99635.00;4497179;31;34359;-73
2023/07/14 00:23:19;;;;;;;;;;;;;;;23.17;62.24;99626.91;4495018;31;34612;-76
2023/07/14 00:25:48;;;;;;;;;;;;;;;23.02;62.83;99630.59;4495057;31;35012;-74
2023/07/14 00:28:18;;;;;;;;;;;;;;;23.06;62.86;99640.03;4499819;31;34550;-75
2023/07/14 00:30:50;;;;;;;;;;;;;;;23.15;62.45;99642.06;4496933;31;32552;-76
2023/07/14 00:33:20;;;;;;;;;;;;;;;22.93;63.20;99635.50;4495376;31;34020;-74
2023/07/14 00:35:54;;;;;;;;;;;;;;;22.91;63.40;99639.19;4495646;31;34089;-76
2023/07/14 00:38:22;;;;;;;;;;;;;;;22.90;63.32;99635.69;4496081;31;34376;-75
2023/07/14 00:40:53;;;;;;;;;;;;;;;22.92;62.97;99630.31;4499867;31;32949;-74
2023/07/14 00:43:25;;;;;;;;;;;;;;;23.05;62.47;99638.31;4494890;31;33587;-74
2023/07/14 00:45:58;;;;;;;;;;;;;;;22.67;63.74;99639.84;4495303;31;34272;-74
2023/07/14 00:48:27;;;;;;;;;;;;;;;22.99;62.90;99629.81;4496268;31;34811;-77
2023/07/14 00:50:57;;;;;;;;;;;;;;;22.98;63.28;99630.78;4500395;31;33218;-74
2023/07/14 00:53:28;;;;;;;;;;;;;;;23.10;62.63;99633.56;4497386;31;34462;-76
2023/07/14 00:55:59;;;;;;;;;;;;;;;22.99;63.00;99639.56;4495329;31;33997;-74
2023/07/14 00:58:28;;;;;;;;;;;;;;;22.77;63.52;99634.81;4498386;31;34678;-74
2023/07/14 01:01:03;;;;;;;;;;;;;;;23.04;62.90;99632.19;4494875;31;33958;-74
2023/07/14 01:03:39;;;;;;;;;;;;;;;22.81;63.54;99631.03;4500006;31;33561;-77
2023/07/14 01:06:10;;;;;;;;;;;;;;;22.78;64.15;99636.47;4495064;31;34862;-74
2023/07/14 01:08:46;;;;;;;;;;;;;;;22.90;63.85;99634.84;4498326;31;34205;-75
2023/07/14 01:11:16;;;;;;;;;;;;;;;23.02;63.19;99631.41;4480886;31;33570;-74
2023/07/14 01:13:47;;;;;;;;;;;;;;;22.80;63.85;99632.78;4495107;31;34235;-74
2023/07/14 01:16:16;;;;;;;;;;;;;;;22.75;64.22;99639.34;4500017;31;33244;-75
2023/07/14 01:18:50;;;;;;;;;;;;;;;22.52;65.02;99646.06;4495755;31;33303;-75
2023/07/14 01:21:20;;;;;;;;;;;;;;;22.55;65.19;99641.47;4495595;31;32302;-77
2023/07/14 01:23:55;;;;;;;;;;;;;;;22.78;64.26;99644.41;4494858;31;34000;-74
2023/07/14 01:26:35;;;;;;;;;;;;;;;22.88;63.75;99653.47;4499423;31;34985;-74
2023/07/14 01:29:05;;;;;;;;;;;;;;;22.54;65.00;99647.72;4500001;31;34948;-74
2023/07/14 01:31:42;;;;;;;;;;;;;;;22.48;65.57;99652.53;4495562;31;33619;-75
2023/07/14 01:34:12;;;;;;;;;;;;;;;22.48;65.41;99652.53;4494964;31;34298;-76
2023/07/14 01:36:45;;;;;;;;;;;;;;;22.42;65.63;99651.09;4495411;31;34170;-77
2023/07/14 01:39:15;;;;;;;;;;;;;;;22.44;65.89;99651.84;4499928;31;33855;-76
2023/07/14 01:41:44;;;;;;;;;;;;;;;22.57;65.29;99646.66;4499066;31;33085;-75
2023/07/14 01:44:20;;;;;;;;;;;;;;;22.56;64.93;99648.44;4494791;31;33656;-76
2023/07/14 01:46:49;;;;;;;;;;;;;;;22.31;65.14;99645.66;4496220;31;34666;-75
2023/07/14 01:49:23;;;;;;;;;;;;;;;22.47;64.87;99649.03;4498463;31;34209;-75
2023/07/14 01:51:53;;;;;;;;;;;;;;;22.47;64.00;99649.03;4499850;31;32905;-74
2023/07/14 01:54:31;;;;;;;;;;;;;;;22.34;64.76;99650.75;4495043;31;33738;-73
2023/07/14 01:57:00;;;;;;;;;;;;;;;22.50;63.31;99650.63;4498028;31;34359;-75
2023/07/14 01:59:32;;;;;;;;;;;;;;;22.39;63.70;99653.09;4498210;31;34360;-74
2023/07/14 02:02:04;;;;;;;;;;;;;;;22.50;62.77;99656.78;4494159;31;33152;-74
2023/07/14 02:04:34;;;;;;;;;;;;;;;22.19;63.69;99664.88;4499082;31;34497;-76
2023/07/14 02:07:08;;;;;;;;;;;;;;;22.24;63.92;99652.25;4493700;31;34395;-73
2023/07/14 02:09:37;;;;;;;;;;;;;;;22.60;62.04;99653.53;4496644;31;34030;-75
2023/07/14 02:12:08;;;;;;;;;;;;;;;22.44;63.03;99658.94;4495067;31;34184;-74
2023/07/14 02:14:48;;;;;;;;;;;;;;;22.39;63.28;99653.94;4498364;31;34085;-76
2023/07/14 02:17:21;;;;;;;;;;;;;;;22.48;62.66;99652.53;4499695;31;34141;-74
2023/07/14 02:19:51;;;;;;;;;;;;;;;22.44;62.79;99659.78;4495210;31;34667;-74
2023/07/14 02:22:20;;;;;;;;;;;;;;;22.44;62.88;99661.59;4494574;31;32891;-75
2023/07/14 02:24:49;;;;;;;;;;;;;;;22.14;64.23;99663.38;4494627;31;33807;-75
2023/07/14 02:27:18;;;;;;;;;;;;;;;22.08;64.59;99668.16;4499651;31;34174;-74
2023/07/14 02:29:49;;;;;;;;;;;;;;;22.34;63.06;99666.59;4494654;31;33451;-74
2023/07/14 02:32:24;;;;;;;;;;;;;;;22.30;63.55;99670.38;4494893;31;33120;-76
2023/07/14 02:34:57;;;;;;;;;;;;;;;22.56;62.65;99682.81;4494538;31;34215;-74
2023/07/14 02:40:39;;;;;;;;;;;;;;;22.55;61.84;99689.06;4428227;32;33450;-75
2023/07/14 02:43:11;;;;;;;;;;;;;;;22.37;62.80;99690.19;4434718;32;33720;-74
2023/07/14 02:45:50;;;;;;;;;;;;;;;22.49;62.20;99692.06;4429833;32;34110;-77
2023/07/14 02:48:20;;;;;;;;;;;;;;;22.44;62.02;99693.31;4445729;32;32933;-74
2023/07/14 02:50:52;;;;;;;;;;;;;;;22.57;62.26;99699.53;4445882;32;34138;-76
2023/07/14 02:53:23;;;;;;;;;;;;;;;22.77;61.39;99695.63;4444689;32;33197;-75
2023/07/14 02:55:56;;;;;;;;;;;;;;;22.77;61.87;99696.47;4435594;32;33474;-76
2023/07/14 02:58:32;;;;;;;;;;;;;;;22.77;61.01;99691.19;4429814;32;33658;-74
2023/07/14 03:01:05;;;;;;;;;;;;;;;22.70;61.24;99699.59;4429848;32;34895;-74
2023/07/14 03:03:41;;;;;;;;;;;;;;;22.40;62.11;99691.78;4429490;32;32829;-76
2023/07/14 03:06:12;;;;;;;;;;;;;;;22.66;61.08;99698.94;4429175;32;34308;-76
2023/07/14 03:08:41;;;;;;;;;;;;;;;22.46;62.08;99694.91;4445862;32;34639;-75
2023/07/14 03:11:17;;;;;;;;;;;;;;;22.60;61.47;99698.50;4444495;32;33792;-75
2023/07/14 03:13:47;;;;;;;;;;;;;;;22.37;62.29;99714.84;4444875;32;33512;-77
2023/07/14 03:16:16;;;;;;;;;;;;;;;22.37;62.63;99712.22;4445137;32;33610;-75
2023/07/14 03:18:45;;;;;;;;;;;;;;;22.84;60.84;99715.44;4482964;32;35747;-74
2023/07/14 03:21:20;;;;;;;;;;;;;;;22.92;60.82;99707.03;4477759;32;34847;-75
2023/07/14 03:23:49;;;;;;;;;;;;;;;22.96;60.78;99706.72;4479726;32;33381;-74
2023/07/14 03:26:18;;;;;;;;;;;;;;;23.09;60.07;99704.16;4481277;32;34135;-75
2023/07/14 03:28:46;;;;;;;;;;;;;;;23.03;59.72;99706.34;4483716;32;34089;-77
2023/07/14 03:31:24;;;;;;;;;;;;;;;22.68;60.82;99706.78;4484611;32;33759;-75
2023/07/14 03:33:53;;;;;;;;;;;;;;;22.79;60.54;99707.81;4479885;32;32867;-74
2023/07/14 03:36:28;;;;;;;;;;;;;;;22.85;60.67;99714.50;4480620;32;34536;-76
2023/07/14 03:39:16;;;;;;;;;;;;;;;22.69;61.00;99713.75;4483428;32;34777;-75
2023/07/14 03:41:45;;;;;;;;;;;;;;;22.76;60.57;99713.31;4445673;32;1086595;-76
2023/07/14 03:44:14;;;;;;;;;;;;;;;22.77;60.57;99719.44;4509271;31;33272;-74
2023/07/14 03:46:48;;;;;;;;;;;;;;;22.74;60.74;99719.63;4511122;31;34941;-75
2023/07/14 03:49:17;;;;;;;;;;;;;;;22.66;61.02;99714.81;4512910;31;34249;-75
2023/07/14 03:51:51;;;;;;;;;;;;;;;22.86;60.46;99716.22;4511553;31;33658;-76
2023/07/14 03:54:20;;;;;;;;;;;;;;;22.87;60.26;99717.91;4512607;31;33162;-75
2023/07/14 03:56:52;;;;;;;;;;;;;;;22.46;61.59;99716.06;4516087;31;34816;-75
2023/07/14 03:59:21;;;;;;;;;;;;;;;22.72;60.96;99713.59;4512189;31;34818;-74
2023/07/14 04:01:53;;;;;;;;;;;;;;;22.73;60.93;99717.91;4511492;31;34516;-74
2023/07/14 04:04:23;;;;;;;;;;;;;;;22.88;60.61;99724.91;4511194;31;32901;-75
2023/07/14 04:06:55;;;;;;;;;;;;;;;22.90;60.76;99727.44;4515920;31;32980;-74
2023/07/14 04:09:24;;;;;;;;;;;;;;;22.99;60.08;99721.59;4483533;31;33483;-75
2023/07/14 04:11:54;;;;;;;;;;;;;;;23.02;61.01;99725.84;4495956;31;33837;-75
2023/07/14 04:14:23;;;;;;;;;;;;;;;23.27;58.96;99730.38;4495795;31;33816;-75
2023/07/14 04:17:00;;;;;;;;;;;;;;;23.10;60.04;99726.19;4497342;31;35109;-74
2023/07/14 04:19:29;;;;;;;;;;;;;;;22.98;60.04;99733.13;4499852;31;33796;-75
2023/07/14 04:22:01;;;;;;;;;;;;;;;22.93;60.44;99733.38;4497993;31;33649;-74
2023/07/14 04:24:29;;;;;;;;;;;;;;;23.02;59.79;99736.41;4495445;31;34176;-75
2023/07/14 04:26:59;;;;;;;;;;;;;;;23.00;59.95;99740.03;4496714;31;34492;-75
2023/07/14 04:29:27;;;;;;;;;;;;;;;22.95;60.35;99739.44;4500504;31;34070;-75
2023/07/14 04:32:00;;;;;;;;;;;;;;;23.06;60.12;99741.41;4507626;31;35149;-75
2023/07/14 04:34:30;;;;;;;;;;;;;;;23.11;60.71;99746.41;4510713;31;33282;-74
2023/07/14 04:36:58;;;;;;;;;;;;;;;23.31;60.05;99753.91;4513885;31;34136;-74
2023/07/14 04:39:28;;;;;;;;;;;;;;;23.55;58.98;99747.94;4513195;31;33996;-75
2023/07/14 04:41:57;;;;;;;;;;;;;;;23.60;59.72;99748.50;4516356;31;33762;-75
2023/07/14 04:44:33;;;;;;;;;;;;;;;23.84;59.50;99744.22;4511572;31;32524;-74
2023/07/14 04:47:03;;;;;;;;;;;;;;;24.15;58.31;99755.41;4510970;31;33634;-76
2023/07/14 04:49:33;;;;;;;;;;;;;;;24.40;58.03;99766.97;4511513;31;33904;-75
2023/07/14 04:52:03;;;;;;;;;;;;;;;24.66;57.40;99767.84;4516031;31;34531;-75
2023/07/14 04:54:35;;;;;;;;;;;;;;;25.27;54.24;99765.25;4511337;31;33228;-75
2023/07/14 04:57:07;;;;;;;;;;;;;;;25.83;52.72;99767.31;4508698;31;34143;-74
2023/07/14 04:59:39;;;;;;;;;;;;;;;26.35;50.91;99776.66;4497512;31;34248;-75
2023/07/14 05:02:11;;;;;;;;;;;;;;;27.08;48.66;99772.69;4511351;31;34175;-76
2023/07/14 05:04:42;;;;;;;;;;;;;;;27.51;48.04;99773.69;4515766;31;33262;-77
2023/07/14 05:07:31;;;;;;;;;;;;;;;27.81;47.49;99778.28;4509706;31;34148;-74
2023/07/14 05:10:00;;;;;;;;;;;;;;;27.94;47.13;99786.16;4499851;31;34845;-77
2023/07/14 05:12:36;;;;;;;;;;;;;;;27.59;47.96;99797.88;4495368;31;34357;-76
2023/07/14 05:15:05;;;;;;;;;;;;;;;27.39;48.74;99804.84;4495131;31;33141;-75
2023/07/14 05:17:38;;;;;;;;;;;;;;;27.15;48.90;99797.84;4499749;31;33855;-75
2023/07/14 05:20:10;;;;;;;;;;;;;;;26.30;50.79;99798.28;4499054;31;34444;-75
2023/07/14 05:22:50;;;;;;;;;;;;;;;26.38;51.32;99803.03;4495001;31;33703;-75
2023/07/14 05:25:20;;;;;;;;;;;;;;;27.20;48.90;99809.00;4495713;31;33396;-75
2023/07/14 05:27:49;;;;;;;;;;;;;;;27.46;47.97;99806.06;4481702;31;33835;-75
2023/07/14 05:30:24;;;;;;;;;;;;;;;27.33;47.94;99811.53;4499481;31;34058;-76
2023/07/14 05:32:54;;;;;;;;;;;;;;;27.10;48.47;99807.19;4494971;31;33295;-74
2023/07/14 05:35:24;;;;;;;;;;;;;;;26.71;49.35;99809.38;4496303;31;33014;-76
2023/07/14 05:37:54;;;;;;;;;;;;;;;26.76;49.74;99807.19;4503718;31;34066;-75
2023/07/14 05:40:25;;;;;;;;;;;;;;;27.08;49.89;99804.63;4499565;31;33680;-76
2023/07/14 05:42:57;;;;;;;;;;;;;;;27.48;48.66;99813.94;4498880;31;34303;-76
2023/07/14 05:45:26;;;;;;;;;;;;;;;27.71;47.83;99807.53;4494070;31;33554;-76
2023/07/14 05:47:56;;;;;;;;;;;;;;;28.09;47.00;99811.50;4494725;31;34388;-76
2023/07/14 05:50:26;;;;;;;;;;;;;;;28.18;46.62;99809.91;4494923;31;35173;-75
2023/07/14 05:52:56;;;;;;;;;;;;;;;28.24;46.79;99810.19;4498537;31;33224;-75
2023/07/14 05:55:29;;;;;;;;;;;;;;;28.61;46.30;99812.44;4496334;31;33545;-75
2023/07/14 05:57:58;;;;;;;;;;;;;;;28.61;45.20;99807.09;4495922;31;34933;-77
2023/07/14 06:00:30;;;;;;;;;;;;;;;28.40;45.58;99817.75;4497114;31;34822;-76
2023/07/14 06:03:00;;;;;;;;;;;;;;;28.02;45.71;99819.19;4503536;31;33938;-78
2023/07/14 06:05:30;;;;;;;;;;;;;;;28.50;45.00;99809.84;4515654;31;32575;-76
2023/07/14 06:07:59;;;;;;;;;;;;;;;28.57;45.21;99811.00;4502823;31;34143;-78
2023/07/14 06:10:28;;;;;;;;;;;;;;;28.30;45.68;99809.69;4496845;31;35018;-76
2023/07/14 06:12:58;;;;;;;;;;;;;;;28.18;45.87;99815.25;4496044;31;33620;-76
2023/07/14 06:15:28;;;;;;;;;;;;;;;27.78;46.79;99816.72;4499327;31;33461;-78
2023/07/14 06:17:57;;;;;;;;;;;;;;;27.97;46.43;99815.22;4493815;31;33989;-77
2023/07/14 06:20:27;;;;;;;;;;;;;;;27.29;47.90;99823.41;4495468;31;34608;-75
2023/07/14 06:23:00;;;;;;;;;;;;;;;26.89;48.35;99825.72;4496399;31;34131;-75
2023/07/14 06:25:29;;;;;;;;;;;;;;;27.16;48.37;99830.63;4495224;31;32937;-76
2023/07/14 06:28:03;;;;;;;;;;;;;;;27.36;47.98;99829.94;4499190;31;34168;-77
2023/07/14 06:30:31;;;;;;;;;;;;;;;27.52;46.95;99832.22;4493568;31;33926;-75
2023/07/14 06:33:01;;;;;;;;;;;;;;;26.95;49.12;99833.22;4496199;31;34319;-76
2023/07/14 06:35:32;;;;;;;;;;;;;;;27.16;48.23;99835.97;4494267;31;33122;-78
2023/07/14 06:38:08;;;;;;;;;;;;;;;27.05;48.69;99836.00;4499407;31;34682;-75
2023/07/14 06:40:37;;;;;;;;;;;;;;;27.19;48.54;99833.97;4496116;31;33661;-75
2023/07/14 06:43:09;;;;;;;;;;;;;;;27.29;48.47;99847.38;4493892;31;33806;-75
2023/07/14 06:45:43;;;;;;;;;;;;;;;27.70;48.06;99843.16;4493722;31;32869;-76
2023/07/14 06:48:11;;;;;;;;;;;;;;;27.38;48.05;99837.81;4503459;31;35077;-75
2023/07/14 06:50:43;;;;;;;;;;;;;;;27.37;47.98;99844.09;4503431;31;34420;-75
2023/07/14 06:53:12;;;;;;;;;;;;;;;27.52;47.74;99834.88;4494234;31;34581;-75
2023/07/14 06:55:43;;;;;;;;;;;;;;;27.09;48.07;99840.97;4493389;31;33764;-75
2023/07/14 06:58:14;;;;;;;;;;;;;;;27.15;47.11;99834.28;4494680;31;33803;-76
2023/07/14 07:00:46;;;;;;;;;;;;;;;27.21;48.20;99841.84;4498408;31;33798;-77
2023/07/14 07:03:15;;;;;;;;;;;;;;;26.90;49.49;99838.06;4495454;31;36584;-75
2023/07/14 07:05:51;;;;;;;;;;;;;;;27.28;47.79;99842.16;4492795;31;33374;-75
2023/07/14 07:08:20;;;;;;;;;;;;;;;27.39;47.33;99839.50;4493965;31;34052;-75
2023/07/14 07:10:49;;;;;;;;;;;;;;;27.70;46.21;99839.66;4495450;31;34509;-75
2023/07/14 07:13:18;;;;;;;;;;;;;;;27.88;45.73;99843.47;4498010;31;34071;-77
2023/07/14 07:15:48;;;;;;;;;;;;;;;27.53;45.54;99839.22;4493817;31;33436;-77
2023/07/14 07:18:24;;;;;;;;;;;;;;;27.59;45.05;99840.53;4496665;31;34200;-77
2023/07/14 07:21:02;;;;;;;;;;;;;;;27.46;44.68;99843.34;4493210;31;34904;-77
2023/07/14 07:23:33;;;;;;;;;;;;;;;27.43;45.78;99846.28;4495468;31;33645;-73
2023/07/14 07:26:02;;;;;;;;;;;;;;;27.67;44.72;99844.25;4498962;31;33488;-75
2023/07/14 07:28:35;;;;;;;;;;;;;;;27.69;44.07;99846.81;4493777;31;34157;-74
2023/07/14 07:31:08;;;;;;;;;;;;;;;27.52;44.67;99850.84;4494954;31;33482;-75
2023/07/14 07:33:47;;;;;;;;;;;;;;;27.89;43.45;99841.69;4493961;31;34479;-75
2023/07/14 07:36:22;;;;;;;;;;;;;;;27.79;43.86;99847.75;4494297;31;33744;-76
2023/07/14 07:38:51;;;;;;;;;;;;;;;28.26;42.15;99840.28;4498956;31;33954;-76
2023/07/14 07:41:22;;;;;;;;;;;;;;;27.62;43.96;99843.81;4498155;31;34994;-76
2023/07/14 07:43:51;;;;;;;;;;;;;;;28.20;41.76;99846.13;4492872;31;34056;-76
2023/07/14 07:46:23;;;;;;;;;;;;;;;28.07;43.02;99854.31;4494300;31;33881;-75
2023/07/14 07:48:52;;;;;;;;;;;;;;;27.82;42.85;99847.50;4498556;31;34235;-75
2023/07/14 07:51:26;;;;;;;;;;;;;;;28.03;42.71;99850.22;4495432;31;33778;-75
2023/07/14 07:53:57;;;;;;;;;;;;;;;28.00;42.16;99850.47;4493349;31;35060;-75
2023/07/14 07:56:28;;;;;;;;;;;;;;;28.18;41.83;99844.56;4493296;31;33921;-74
2023/07/14 07:58:56;;;;;;;;;;;;;;;28.18;42.52;99839.25;4493128;31;34081;-76
2023/07/14 08:01:28;;;;;;;;;;;;;;;28.40;42.04;99841.78;4498323;31;35221;-77
2023/07/14 08:03:57;;;;;;;;;;;;;;;28.53;41.67;99844.25;4493012;31;33763;-76
2023/07/14 08:06:30;;;;;;;;;;;;;;;28.20;41.15;99835.47;4492625;31;32786;-75
2023/07/14 08:09:00;;;;;;;;;;;;;;;28.15;41.40;99839.47;4495666;31;34418;-75
2023/07/14 08:11:31;;;;;;;;;;;;;;;28.12;42.34;99845.06;4500443;31;33565;-75
2023/07/14 08:14:02;;;;;;;;;;;;;;;28.36;41.33;99844.81;4501565;31;36907;-77
2023/07/14 08:16:32;;;;;;;;;;;;;;;28.15;40.75;99848.34;4494875;31;34325;-77
2023/07/14 08:19:01;;;;;;;;;;;;;;;28.74;39.58;99846.91;4499098;31;32705;-77
2023/07/14 08:21:35;;;;;;;;;;;;;;;28.68;39.93;99839.41;4497145;31;34136;-74
2023/07/14 08:24:05;;;;;;;;;;;;;;;28.49;39.81;99841.03;4500335;31;33614;-74
2023/07/14 08:26:40;;;;;;;;;;;;;;;28.75;39.57;99840.56;4495751;31;33437;-76
2023/07/14 08:29:09;;;;;;;;;;;;;;;28.97;38.79;99847.59;4500013;31;34451;-75
2023/07/14 08:31:42;;;;;;;;;;;;;;;28.96;38.47;99839.69;4495691;31;34343;-74
2023/07/14 08:34:18;;;;;;;;;;;;;;;28.82;38.21;99840.91;4495449;31;34616;-77
2023/07/14 08:36:48;;;;;;;;;;;;;;;28.88;38.78;99846.56;4500642;31;34012;-77
2023/07/14 08:39:17;;;;;;;;;;;;;;;29.08;36.43;99849.34;4496761;31;35005;-76
2023/07/14 08:41:50;;;;;;;;;;;;;;;28.91;37.02;99838.25;4494543;31;35999;-75
2023/07/14 08:44:22;;;;;;;;;;;;;;;28.42;36.92;99841.66;4494997;31;34140;-76
2023/07/14 08:46:55;;;;;;;;;;;;;;;28.72;37.14;99840.84;4500504;31;32974;-77
2023/07/14 08:49:26;;;;;;;;;;;;;;;28.97;34.54;99838.69;4500302;31;33751;-75
2023/07/14 08:52:04;;;;;;;;;;;;;;;28.93;34.89;99844.31;4496280;31;34711;-75
2023/07/14 08:54:37;;;;;;;;;;;;;;;28.93;35.61;99840.81;4495698;31;33754;-75
2023/07/14 08:57:10;;;;;;;;;;;;;;;28.76;34.30;99852.12;4496098;31;33563;-76
2023/07/14 08:59:49;;;;;;;;;;;;;;;29.43;34.16;99843.53;4500016;31;34298;-75
2023/07/14 09:02:21;;;;;;;;;;;;;;;29.45;34.51;99849.56;4499493;31;33456;-76
2023/07/14 09:04:58;;;;;;;;;;;;;;;29.45;35.23;99846.06;4496918;31;33573;-77
2023/07/14 09:07:31;;;;;;;;;;;;;;;29.70;36.94;99845.56;4495016;31;33380;-77
2023/07/14 09:10:02;;;;;;;;;;;;;;;29.64;35.26;99842.56;4500749;31;33567;-75
2023/07/14 09:12:36;;;;;;;;;;;;;;;29.93;35.41;99846.13;4499959;31;35421;-76
2023/07/14 09:15:09;;;;;;;;;;;;;;;29.62;35.53;99852.56;4499541;31;33472;-75
2023/07/14 09:17:43;;;;;;;;;;;;;;;29.76;34.31;99850.34;4494877;31;33021;-75
2023/07/14 09:20:24;;;;;;;;;;;;;;;29.61;35.23;99854.38;4497818;31;34681;-77
2023/07/14 09:22:58;;;;;;;;;;;;;;;29.74;34.35;99847.00;4506856;31;33745;-77
2023/07/14 09:25:29;;;;;;;;;;;;;;;29.08;35.09;99847.50;4509889;31;33475;-75
2023/07/14 09:28:00;;;;;;;;;;;;;;;29.24;33.86;99852.34;4498423;31;33790;-76
2023/07/14 09:30:29;;;;;;;;;;;;;;;29.04;33.28;99847.87;4495177;31;34184;-76
2023/07/14 09:33:03;;;;;;;;;;;;;;;29.62;31.95;99852.56;4494878;31;34159;-76
2023/07/14 09:35:32;;;;;;;;;;;;;;;28.98;33.41;99851.09;4494460;31;33744;-74
2023/07/14 09:38:05;;;;;;;;;;;;;;;29.44;32.17;99855.06;4500048;31;33405;-76
2023/07/14 09:40:36;;;;;;;;;;;;;;;29.86;31.83;99841.50;4494827;31;35714;-74
2023/07/14 09:43:12;;;;;;;;;;;;;;;29.82;32.85;99838.25;4494573;31;33862;-76
2023/07/14 09:45:44;;;;;;;;;;;;;;;29.58;33.56;99838.63;4494745;31;33508;-75
2023/07/14 09:48:15;;;;;;;;;;;;;;;29.97;33.56;99844.03;4495473;31;34075;-75
2023/07/14 09:50:50;;;;;;;;;;;;;;;29.83;34.59;99839.09;4499646;31;33433;-75
2023/07/14 09:53:20;;;;;;;;;;;;;;;30.11;33.54;99832.91;4494461;31;34831;-74
2023/07/14 09:55:57;;;;;;;;;;;;;;;30.38;32.64;99842.88;4494566;31;34313;-74
2023/07/14 09:58:55;;;;;;;;;;;;;;;30.54;32.46;99839.63;4499914;31;32118;-76
2023/07/14 10:01:24;;;;;;;;;;;;;;;30.94;31.93;99835.00;4494830;31;33950;-75
2023/07/14 10:03:54;;;;;;;;;;;;;;;30.98;32.32;99842.59;4499792;31;33784;-76
2023/07/14 10:06:24;;;;;;;;;;;;;;;30.78;31.86;99833.75;4494622;31;34071;-75
2023/07/14 10:08:59;;;;;;;;;;;;;;;31.05;32.30;99834.81;4497585;31;33187;-76
2023/07/14 10:11:29;;;;;;;;;;;;;;;30.86;32.48;99829.50;4493377;31;34507;-74
2023/07/14 10:13:59;;;;;;;;;;;;;;;31.09;31.57;99829.97;4493687;31;33697;-76
2023/07/14 10:16:29;;;;;;;;;;;;;;;31.22;33.26;99830.50;4498721;31;33899;-75
2023/07/14 10:19:00;;;;;;;;;;;;;;;31.39;32.48;99827.03;4495589;31;32282;-75
2023/07/14 10:21:30;;;;;;;;;;;;;;;31.44;32.70;99819.38;4495433;31;33678;-75
2023/07/14 10:24:04;;;;;;;;;;;;;;;31.53;31.67;99824.81;4496382;31;35431;-76
2023/07/14 10:26:38;;;;;;;;;;;;;;;31.73;31.25;99823.69;4497714;31;34085;-74
2023/07/14 10:29:26;;;;;;;;;;;;;;;32.06;32.56;99819.47;4506781;31;33415;-75
2023/07/14 10:31:56;;;;;;;;;;;;;;;32.43;32.36;99820.22;4507125;31;33750;-76
2023/07/14 10:34:33;;;;;;;;;;;;;;;32.27;31.54;99818.28;4494587;31;34226;-76
2023/07/14 10:37:12;;;;;;;;;;;;;;;32.00;31.26;99812.03;4494378;31;34800;-77
2023/07/14 10:39:41;;;;;;;;;;;;;;;31.56;30.17;99816.47;4495674;31;33720;-75
2023/07/14 10:42:16;;;;;;;;;;;;;;;31.95;32.19;99806.28;4499564;31;33179;-75
2023/07/14 10:44:44;;;;;;;;;;;;;;;31.78;34.41;99805.28;4494458;31;33991;-77
2023/07/14 10:47:21;;;;;;;;;;;;;;;31.83;33.87;99804.81;4494851;31;34435;-76
2023/07/14 10:49:53;;;;;;;;;;;;;;;31.82;33.13;99801.31;4498903;31;33937;-77
2023/07/14 10:52:27;;;;;;;;;;;;;;;32.20;32.72;99801.09;4494688;31;34249;-75
2023/07/14 10:54:57;;;;;;;;;;;;;;;32.45;33.20;99794.03;4499315;31;34287;-74
2023/07/14 10:57:41;;;;;;;;;;;;;;;32.68;30.89;99795.22;4493654;31;34020;-75
2023/07/14 11:00:14;;;;;;;;;;;;;;;32.75;32.30;99791.91;4496494;31;33120;-75
2023/07/14 11:03:24;;;;;;;;;;;;;;;32.83;31.88;99786.53;4494893;31;34092;-75
2023/07/14 11:05:57;;;;;;;;;;;;;;;32.94;31.45;99784.41;4493854;31;33873;-75
2023/07/14 11:08:28;;;;;;;;;;;;;;;32.59;32.03;99788.09;4495225;31;33928;-76
2023/07/14 11:10:59;;;;;;;;;;;;;;;32.64;31.52;99780.41;4499171;31;33114;-77
2023/07/14 11:13:32;;;;;;;;;;;;;;;32.73;31.90;99779.44;4494172;31;34091;-76
2023/07/14 11:16:03;;;;;;;;;;;;;;;32.94;31.14;99778.19;4494246;31;34179;-77
2023/07/14 11:18:40;;;;;;;;;;;;;;;33.15;31.12;99778.66;4494519;31;34963;-75
2023/07/14 11:21:13;;;;;;;;;;;;;;;33.41;30.46;99774.97;4498410;31;33190;-75
2023/07/14 11:23:44;;;;;;;;;;;;;;;33.55;30.18;99771.63;4497959;31;34695;-76
2023/07/14 11:26:15;;;;;;;;;;;;;;;33.72;31.79;99769.81;4508054;31;33754;-75
2023/07/14 11:28:47;;;;;;;;;;;;;;;33.82;30.51;99768.81;4511491;31;34032;-76
2023/07/14 11:31:20;;;;;;;;;;;;;;;34.24;30.82;99778.56;4510181;31;33727;-75
2023/07/14 11:33:53;;;;;;;;;;;;;;;34.28;30.16;99780.75;4511987;31;33865;-75
2023/07/14 11:36:26;;;;;;;;;;;;;;;34.42;28.79;99771.97;4493908;31;33361;-76
2023/07/14 11:39:00;;;;;;;;;;;;;;;34.13;30.45;99771.69;4495923;31;33946;-75
2023/07/14 11:41:29;;;;;;;;;;;;;;;33.97;31.42;99765.28;4493995;31;33384;-77
2023/07/14 11:44:02;;;;;;;;;;;;;;;33.70;30.76;99766.47;4494016;31;34267;-75
2023/07/14 11:46:30;;;;;;;;;;;;;;;33.65;31.20;99762.59;4500763;31;35009;-76
2023/07/14 11:49:04;;;;;;;;;;;;;;;33.52;31.14;99765.75;4504430;31;33797;-76
2023/07/14 11:51:49;;;;;;;;;;;;;;;33.71;32.74;99754.72;4495631;31;33207;-76
2023/07/14 11:54:20;;;;;;;;;;;;;;;33.22;31.92;99761.84;4496152;31;33534;-77
2023/07/14 11:56:58;;;;;;;;;;;;;;;32.85;31.56;99761.19;4495470;31;33887;-75
2023/07/14 11:59:30;;;;;;;;;;;;;;;33.00;31.27;99764.09;4500429;31;33302;-75
2023/07/14 12:02:00;;;;;;;;;;;;;;;33.13;31.94;99761.84;4496100;31;32302;-76
2023/07/14 12:04:31;;;;;;;;;;;;;;;33.04;31.30;99754.75;4494772;31;34196;-76
2023/07/14 12:07:27;;;;;;;;;;;;;;;33.07;32.01;99764.31;4494752;31;33821;-76
2023/07/14 12:10:10;;;;;;;;;;;;;;;33.07;31.57;99762.47;4439060;32;34324;-76
2023/07/14 12:12:40;;;;;;;;;;;;;;;32.83;33.02;99765.88;4448556;32;33361;-75
2023/07/14 12:15:28;;;;;;;;;;;;;;;32.16;32.96;99760.34;4443209;32;34821;-75
2023/07/14 12:17:58;;;;;;;;;;;;;;;32.04;31.54;99750.81;4438150;32;34171;-76
2023/07/14 12:20:32;;;;;;;;;;;;;;;32.13;31.74;99749.87;4442952;32;33946;-76
2023/07/14 12:23:16;;;;;;;;;;;;;;;32.40;33.89;99745.34;4435707;32;33803;-75
2023/07/14 12:25:58;;;;;;;;;;;;;;;32.10;34.21;99744.84;4438169;32;33609;-76
2023/07/14 12:28:30;;;;;;;;;;;;;;;31.84;32.97;99745.62;4439450;32;35032;-75
2023/07/14 12:31:00;;;;;;;;;;;;;;;32.16;33.40;99738.84;4434549;32;33962;-76
2023/07/14 12:33:39;;;;;;;;;;;;;;;32.29;32.33;99736.56;4442026;32;33239;-75
2023/07/14 12:36:11;;;;;;;;;;;;;;;32.38;32.99;99739.28;4443154;32;33774;-77
2023/07/14 12:38:43;;;;;;;;;;;;;;;32.29;32.92;99736.56;4441269;32;33495;-76
2023/07/14 12:41:20;;;;;;;;;;;;;;;32.08;31.97;99736.09;4449211;32;33575;-75
2023/07/14 12:43:55;;;;;;;;;;;;;;;32.38;31.16;99733.91;4438657;32;33867;-76
2023/07/14 12:46:25;;;;;;;;;;;;;;;32.01;31.88;99735.88;4458047;32;33778;-75
2023/07/14 12:48:59;;;;;;;;;;;;;;;32.07;32.23;99729.91;4473488;32;34133;-75
2023/07/14 12:52:00;;;;;;;;;;;;;;;31.87;32.33;99728.38;4471418;31;34640;-76
2023/07/14 12:54:30;;;;;;;;;;;;;;;32.40;31.80;99723.88;4473249;32;33173;-76
2023/07/14 12:56:59;;;;;;;;;;;;;;;32.95;30.89;99729.66;4483549;32;33648;-76
2023/07/14 12:59:29;;;;;;;;;;;;;;;33.23;30.82;99720.53;4478354;32;33115;-75
2023/07/14 13:02:07;;;;;;;;;;;;;;;32.79;29.47;99715.31;4478326;32;34031;-75
2023/07/14 13:04:37;;;;;;;;;;;;;;;33.06;29.64;99712.44;4475809;31;33488;-75
2023/07/14 13:07:07;;;;;;;;;;;;;;;33.09;29.75;99708.56;4483256;32;34732;-75
2023/07/14 13:09:36;;;;;;;;;;;;;;;33.13;28.52;99718.81;4472917;32;33822;-76
2023/07/14 13:12:07;;;;;;;;;;;;;;;33.45;27.34;99716.34;4466535;32;34270;-77
2023/07/14 13:14:37;;;;;;;;;;;;;;;33.66;28.17;99715.84;4463313;32;32911;-78
2023/07/14 13:17:06;;;;;;;;;;;;;;;34.19;26.49;99706.38;4465889;32;33903;-78